createdAt,value
2018-07-25T00:00:04.989Z,98452.81
2018-07-25T00:02:33.139Z,98446.84
2018-07-25T00:05:01.236Z,98442.94
2018-07-25T00:07:29.336Z,98443.81
2018-07-25T00:09:57.440Z,98440.70
2018-07-25T00:12:25.835Z,98448.05
2018-07-25T00:14:53.928Z,98444.59
2018-07-25T00:17:22.007Z,98448.80
2018-07-25T00:19:50.099Z,98448.51
2018-07-25T00:22:18.193Z,98451.36
2018-07-25T00:24:46.284Z,98448.15
2018-07-25T00:27:15.106Z,98447.89
2018-07-25T00:29:44.055Z,98445.22
2018-07-25T00:32:12.447Z,98448.72
2018-07-25T00:34:40.550Z,98448.72
2018-07-25T00:37:08.646Z,98446.41
2018-07-25T00:39:36.735Z,98448.09
2018-07-25T00:42:04.858Z,98449.66
2018-07-25T00:44:32.959Z,98448.17
2018-07-25T00:47:01.075Z,98450.95
2018-07-25T00:49:29.248Z,98449.01
2018-07-25T00:51:57.358Z,98448.63
2018-07-25T00:54:25.449Z,98449.89
2018-07-25T00:56:53.559Z,98444.03
2018-07-25T00:59:21.925Z,98447.72
2018-07-25T01:01:50.059Z,98448.59
2018-07-25T01:04:18.223Z,98450.45
2018-07-25T01:06:46.356Z,98449.99
2018-07-25T01:09:14.436Z,98457.11
2018-07-25T01:11:42.556Z,98452.16
2018-07-25T01:14:10.655Z,98453.25
2018-07-25T01:16:39.124Z,98450.47
2018-07-25T01:19:07.226Z,98457.72
2018-07-25T01:21:35.316Z,98450.91
2018-07-25T01:24:03.416Z,98453.47
2018-07-25T01:26:31.820Z,98455.33
2018-07-25T01:28:59.948Z,98455.45
2018-07-25T01:31:28.060Z,98459.84
2018-07-25T01:33:56.139Z,98464.85
2018-07-25T01:36:24.523Z,98458.98
2018-07-25T01:38:52.614Z,98468.08
2018-07-25T01:41:20.731Z,98469.96
2018-07-25T01:43:48.814Z,98463.83
2018-07-25T01:46:18.622Z,98466.86
2018-07-25T01:48:47.330Z,98465.31
2018-07-25T01:51:15.435Z,98464.52
2018-07-25T01:56:47.626Z,98463.45
2018-07-25T01:59:15.737Z,98465.45
2018-07-25T02:01:43.890Z,98464.49
2018-07-25T02:04:12.459Z,98471.98
2018-07-25T02:06:40.603Z,98474.11
2018-07-25T02:09:10.637Z,98469.27
2018-07-25T02:11:38.911Z,98471.12
2018-07-25T02:14:07.136Z,98471.66
2018-07-25T02:16:35.303Z,98470.72
2018-07-25T02:49:34.002Z,98481.42
2018-07-25T02:52:02.225Z,98482.88
2018-07-25T02:54:30.378Z,98478.25
2018-07-25T02:56:58.625Z,98478.44
2018-07-25T02:59:26.724Z,98482.24
2018-07-25T03:01:54.922Z,98489.73
2018-07-25T04:35:49.121Z,98533.55
2018-07-25T04:38:17.285Z,98543.92
2018-07-25T04:40:45.717Z,98539.84
2018-07-25T04:43:13.823Z,98541.98
2018-07-25T05:07:02.802Z,98548.53
2018-07-25T05:09:30.900Z,98553.64
2018-07-25T05:11:59.014Z,98556.95
2018-07-25T05:14:27.755Z,98561.81
2018-07-25T05:16:55.874Z,98559.50
2018-07-25T05:19:23.967Z,98560.50
2018-07-25T05:31:00.504Z,98560.11
2018-07-25T05:33:29.471Z,98566.35
2018-07-25T05:35:57.678Z,98557.73
2018-07-25T05:38:25.961Z,98553.95
2018-07-25T05:40:54.076Z,98559.33
2018-07-25T05:43:22.176Z,98557.81
2018-07-25T05:45:50.319Z,98555.81
2018-07-25T05:48:18.400Z,98553.51
2018-07-25T05:50:46.524Z,98554.72
2018-07-25T05:53:14.923Z,98560.44
2018-07-25T05:55:49.871Z,98554.31
2018-07-25T05:58:18.247Z,98561.94
2018-07-25T06:00:46.351Z,98564.97
2018-07-25T06:03:14.508Z,98557.67
2018-07-25T06:05:42.547Z,98558.65
2018-07-25T06:08:10.652Z,98561.86
2018-07-25T06:10:38.752Z,98561.09
2018-07-25T06:13:06.866Z,98563.59
2018-07-25T06:15:40.935Z,98557.89
2018-07-25T06:18:09.040Z,98557.79
2018-07-25T06:20:37.208Z,98563.34
2018-07-25T06:23:05.255Z,98558.66
2018-07-25T06:25:33.363Z,98568.66
2018-07-25T06:28:02.009Z,98573.05
2018-07-25T06:30:30.084Z,98571.42
2018-07-25T06:32:58.549Z,98569.00
2018-07-25T06:35:27.281Z,98566.84
2018-07-25T06:37:55.448Z,98564.72
2018-07-25T06:40:23.533Z,98566.16
2018-07-25T06:42:52.121Z,98566.28
2018-07-25T06:45:20.252Z,98579.64
2018-07-25T06:47:48.344Z,98581.20
2018-07-25T06:50:16.447Z,98580.41
2018-07-25T06:52:44.863Z,98582.00
2018-07-25T06:55:12.934Z,98583.86
2018-07-25T06:57:41.043Z,98583.94
2018-07-25T07:00:09.147Z,98582.16
2018-07-25T07:02:37.253Z,98580.06
2018-07-25T07:05:05.353Z,98585.72
2018-07-25T07:07:33.465Z,98584.41
2018-07-25T07:10:01.549Z,98578.98
2018-07-25T07:12:31.145Z,98585.48
2018-07-25T07:15:01.106Z,98586.75
2018-07-25T07:17:29.251Z,98583.77
2018-07-25T07:19:57.612Z,98587.01
2018-07-25T07:22:25.706Z,98594.58
2018-07-25T07:24:53.817Z,98589.90
2018-07-25T07:27:21.908Z,98590.63
2018-07-25T07:29:50.009Z,98596.03
2018-07-25T07:32:18.107Z,98591.84
2018-07-25T07:34:46.202Z,98587.30
2018-07-25T07:37:14.396Z,98596.61
2018-07-25T07:39:42.460Z,98591.66
2018-07-25T07:42:10.899Z,98588.95
2018-07-25T07:44:39.016Z,98590.58
2018-07-25T07:47:07.218Z,98587.69
2018-07-25T07:49:36.058Z,98587.84
2018-07-25T07:52:04.156Z,98583.18
2018-07-25T07:54:32.308Z,98579.18
2018-07-25T07:57:00.673Z,98579.56
2018-07-25T07:59:28.827Z,98583.31
2018-07-25T08:01:56.867Z,98578.78
2018-07-25T08:04:25.267Z,98581.48
2018-07-25T08:06:53.367Z,98578.64
2018-07-25T08:09:21.520Z,98589.03
2018-07-25T08:11:49.639Z,98586.61
2018-07-25T08:14:17.753Z,98579.38
2018-07-25T08:16:45.851Z,98580.63
2018-07-25T08:19:13.951Z,98581.69
2018-07-25T08:21:42.053Z,98578.81
2018-07-25T08:24:10.156Z,98580.48
2018-07-25T08:26:38.265Z,98582.28
2018-07-25T08:29:06.363Z,98577.09
2018-07-25T08:31:34.983Z,98586.46
2018-07-25T08:34:04.076Z,98578.37
2018-07-25T08:36:32.191Z,98580.73
2018-07-25T08:39:00.303Z,98580.84
2018-07-25T08:41:28.403Z,98580.20
2018-07-25T08:43:56.490Z,98581.59
2018-07-25T08:46:24.760Z,98583.30
2018-07-25T08:48:52.851Z,98579.84
2018-07-25T08:51:20.948Z,98584.55
2018-07-25T08:53:49.067Z,98583.59
2018-07-25T08:56:17.145Z,98580.09
2018-07-25T08:58:45.271Z,98585.08
2018-07-25T09:01:13.358Z,98581.95
2018-07-25T09:03:41.460Z,98580.52
2018-07-25T09:06:09.560Z,98592.61
2018-07-25T09:08:37.650Z,98584.59
2018-07-25T09:11:05.887Z,98584.34
2018-07-25T09:13:33.970Z,98585.64
2018-07-25T09:16:02.096Z,98586.75
2018-07-25T09:18:30.212Z,98580.84
2018-07-25T09:20:58.304Z,98585.52
2018-07-25T09:23:26.389Z,98574.50
2018-07-25T09:25:54.488Z,98575.16
2018-07-25T09:28:22.589Z,98580.70
2018-07-25T09:30:50.683Z,98582.77
2018-07-25T09:33:18.793Z,98571.52
2018-07-25T09:35:46.931Z,98578.91
2018-07-25T09:38:15.016Z,98575.16
2018-07-25T09:40:43.116Z,98569.69
2018-07-25T09:43:11.199Z,98573.33
2018-07-25T09:45:39.302Z,98564.42
2018-07-25T09:48:07.387Z,98564.63
2018-07-25T09:50:35.479Z,98566.94
2018-07-25T09:55:56.562Z,98565.80
2018-07-25T09:58:24.650Z,98563.61
2018-07-25T10:00:52.820Z,98559.47
2018-07-25T10:03:21.102Z,98564.01
2018-07-25T10:05:49.232Z,98564.53
2018-07-25T10:08:17.861Z,98556.30
2018-07-25T10:10:46.043Z,98560.66
2018-07-25T10:13:14.147Z,98555.42
2018-07-25T10:15:42.242Z,98556.70
2018-07-25T10:18:10.358Z,98547.67
2018-07-25T10:20:38.521Z,98546.65
2018-07-25T10:23:06.639Z,98544.60
2018-07-25T10:25:34.735Z,98546.32
2018-07-25T10:28:02.838Z,98548.98
2018-07-25T10:30:30.936Z,98538.50
2018-07-25T10:32:59.141Z,98545.11
2018-07-25T10:35:27.131Z,98539.64
2018-07-25T10:37:55.253Z,98539.69
2018-07-25T10:40:23.794Z,98541.19
2018-07-25T10:42:51.883Z,98540.48
2018-07-25T10:45:19.978Z,98533.84
2018-07-25T10:47:48.079Z,98536.36
2018-07-25T10:50:16.165Z,98534.53
2018-07-25T10:52:44.264Z,98531.97
2018-07-25T10:55:12.366Z,98530.52
2018-07-25T10:57:40.796Z,98523.97
2018-07-25T11:00:09.063Z,98525.67
2018-07-25T11:02:37.571Z,98522.87
2018-07-25T11:05:05.703Z,98523.84
2018-07-25T11:07:33.811Z,98518.19
2018-07-25T11:10:01.892Z,98513.81
2018-07-25T11:12:29.983Z,98518.06
2018-07-25T11:14:58.475Z,98507.23
2018-07-25T11:17:26.598Z,98508.56
2018-07-25T11:19:54.689Z,98510.87
2018-07-25T11:22:22.786Z,98501.88
2018-07-25T11:24:50.881Z,98507.95
2018-07-25T11:27:18.998Z,98511.73
2018-07-25T11:29:47.100Z,98499.42
2018-07-25T11:32:15.192Z,98502.14
2018-07-25T11:34:43.993Z,98501.68
2018-07-25T11:37:12.103Z,98500.34
2018-07-25T11:39:40.195Z,98494.06
2018-07-25T11:42:08.297Z,98495.98
2018-07-25T11:44:36.383Z,98489.98
2018-07-25T11:47:04.474Z,98490.00
2018-07-25T11:49:32.575Z,98492.98
2018-07-25T11:52:00.664Z,98495.45
2018-07-25T11:54:28.733Z,98495.13
2018-07-25T11:56:56.831Z,98495.88
2018-07-25T11:59:24.943Z,98484.99
2018-07-25T12:01:53.041Z,98493.22
2018-07-25T12:04:21.127Z,98495.16
2018-07-25T12:06:49.229Z,98493.27
2018-07-25T12:09:17.339Z,98493.53
2018-07-25T12:11:46.709Z,98484.55
2018-07-25T12:14:16.012Z,98482.91
2018-07-25T12:16:44.150Z,98478.56
2018-07-25T12:19:12.268Z,98469.83
2018-07-25T12:21:41.256Z,98479.63
2018-07-25T12:24:09.344Z,98479.34
2018-07-25T12:26:37.498Z,98476.64
2018-07-25T12:29:05.576Z,98479.36
2018-07-25T12:31:33.659Z,98472.30
2018-07-25T12:34:01.767Z,98473.38
2018-07-25T12:36:29.855Z,98472.84
2018-07-25T12:38:57.944Z,98473.66
2018-07-25T12:41:26.036Z,98460.29
2018-07-25T12:43:54.158Z,98472.00
2018-07-25T12:46:22.228Z,98465.22
2018-07-25T12:48:50.335Z,98465.49
2018-07-25T12:51:18.424Z,98458.41
2018-07-25T12:53:46.606Z,98458.66
2018-07-25T12:56:14.611Z,98453.79
2018-07-25T12:58:42.712Z,98451.33
2018-07-25T13:01:11.298Z,98445.87
2018-07-25T13:03:39.409Z,98448.28
2018-07-25T13:06:07.506Z,98453.21
2018-07-25T13:08:36.574Z,98444.81
2018-07-25T13:11:04.648Z,98439.56
2018-07-25T13:13:32.741Z,98446.08
2018-07-25T13:16:00.833Z,98440.39
2018-07-25T13:18:28.920Z,98446.14
2018-07-25T13:20:57.923Z,98438.52
2018-07-25T13:23:26.024Z,98445.28
2018-07-25T13:25:54.138Z,98441.75
2018-07-25T13:28:22.280Z,98436.22
2018-07-25T13:30:50.471Z,98443.35
2018-07-25T13:33:18.575Z,98432.36
2018-07-25T13:35:46.679Z,98430.05
2018-07-25T13:38:14.870Z,98417.39
2018-07-25T13:40:43.660Z,98430.96
2018-07-25T13:43:11.759Z,98423.00
2018-07-25T13:45:39.973Z,98419.27
2018-07-25T13:48:07.949Z,98421.52
2018-07-25T13:50:36.033Z,98415.28
2018-07-25T13:53:04.171Z,98406.09
2018-07-25T13:55:32.253Z,98405.30
2018-07-25T13:58:00.676Z,98401.41
2018-07-25T14:00:28.784Z,98398.44
2018-07-25T14:02:56.875Z,98407.30
2018-07-25T14:05:24.982Z,98410.60
2018-07-25T14:07:53.111Z,98407.34
2018-07-25T14:10:24.427Z,98406.05
2018-07-25T14:12:52.785Z,98400.70
2018-07-25T14:15:20.969Z,98408.72
2018-07-25T14:17:49.384Z,98394.47
2018-07-25T14:20:17.712Z,98397.22
2018-07-25T14:22:46.084Z,98399.41
2018-07-25T14:25:15.172Z,98398.05
2018-07-25T14:27:43.295Z,98392.37
2018-07-25T14:30:11.461Z,98394.36
2018-07-25T14:32:39.555Z,98402.00
2018-07-25T14:35:07.650Z,98402.28
2018-07-25T14:37:35.728Z,98399.30
2018-07-25T14:40:03.999Z,98394.63
2018-07-25T14:42:32.045Z,98391.61
2018-07-25T14:45:00.160Z,98387.20
2018-07-25T14:47:28.279Z,98381.91
2018-07-25T14:49:56.387Z,98380.95
2018-07-25T14:52:24.807Z,98377.19
2018-07-25T14:54:52.876Z,98377.66
2018-07-25T14:57:21.003Z,98371.53
2018-07-25T14:59:49.115Z,98377.52
2018-07-25T15:02:17.228Z,98383.14
2018-07-25T15:04:45.324Z,98384.47
2018-07-25T15:07:13.789Z,98375.78
2018-07-25T15:09:41.879Z,98376.32
2018-07-25T15:12:09.972Z,98373.25
2018-07-25T15:14:38.065Z,98377.05
2018-07-25T15:17:06.196Z,98374.08
2018-07-25T15:19:34.281Z,98372.46
2018-07-25T15:22:02.412Z,98381.52
2018-07-25T15:24:30.500Z,98378.53
2018-07-25T15:26:58.594Z,98378.84
2018-07-25T15:29:26.788Z,98368.38
2018-07-25T15:31:54.816Z,98367.47
2018-07-25T15:34:22.916Z,98363.64
2018-07-25T15:36:52.280Z,98359.01
2018-07-25T15:39:23.512Z,98365.89
2018-07-25T15:41:52.213Z,98356.28
2018-07-25T15:44:21.626Z,98363.48
2018-07-25T15:46:49.732Z,98364.75
2018-07-25T15:49:18.180Z,98352.98
2018-07-25T15:51:46.276Z,98353.38
2018-07-25T15:54:14.384Z,98351.56
2018-07-25T15:56:42.506Z,98357.03
2018-07-25T15:59:10.588Z,98351.59
2018-07-25T16:01:38.720Z,98354.31
2018-07-25T16:04:06.895Z,98359.52
2018-07-25T16:06:35.018Z,98352.07
2018-07-25T16:09:03.492Z,98351.47
2018-07-25T16:11:32.552Z,98344.05
2018-07-25T16:14:01.600Z,98349.50
2018-07-25T16:16:29.980Z,98348.81
2018-07-25T16:18:58.063Z,98345.45
2018-07-25T16:21:26.166Z,98341.77
2018-07-25T16:23:54.262Z,98337.34
2018-07-25T16:26:22.389Z,98337.84
2018-07-25T16:28:50.476Z,98329.48
2018-07-25T16:31:18.598Z,98333.59
2018-07-25T16:33:46.687Z,98334.67
2018-07-25T16:36:15.060Z,98330.66
2018-07-25T16:38:43.158Z,98327.09
2018-07-25T16:41:11.250Z,98322.34
2018-07-25T16:43:39.352Z,98325.89
2018-07-25T16:46:07.454Z,98323.17
2018-07-25T16:48:35.598Z,98326.80
2018-07-25T16:51:03.768Z,98327.06
2018-07-25T16:53:31.856Z,98327.88
2018-07-25T16:55:59.926Z,98328.62
2018-07-25T16:58:28.040Z,98328.34
2018-07-25T17:00:56.133Z,98331.66
2018-07-25T17:03:24.241Z,98334.70
2018-07-25T17:05:52.336Z,98332.58
2018-07-25T17:08:21.612Z,98335.80
2018-07-25T17:10:49.710Z,98344.00
2018-07-25T17:13:17.803Z,98335.56
2018-07-25T17:15:45.890Z,98339.04
2018-07-25T17:18:16.049Z,98342.07
2018-07-25T17:20:45.718Z,98332.79
2018-07-25T17:23:13.806Z,98330.78
2018-07-25T17:25:41.898Z,98332.20
2018-07-25T17:28:09.987Z,98334.46
2018-07-25T17:30:38.108Z,98338.56
2018-07-25T17:33:06.240Z,98339.95
2018-07-25T17:35:34.367Z,98339.16
2018-07-25T17:38:02.456Z,98342.98
2018-07-25T17:40:30.564Z,98340.52
2018-07-25T17:42:58.982Z,98339.42
2018-07-25T17:45:27.070Z,98343.20
2018-07-25T17:47:55.166Z,98346.77
2018-07-25T17:50:23.252Z,98345.41
2018-07-25T17:52:51.374Z,98346.20
2018-07-25T17:55:19.439Z,98348.38
2018-07-25T17:57:47.531Z,98357.09
2018-07-25T18:00:15.638Z,98363.09
2018-07-25T18:02:43.751Z,98371.22
2018-07-25T18:05:11.824Z,98380.91
2018-07-25T18:07:39.917Z,98382.09
2018-07-25T18:10:08.037Z,98387.64
2018-07-25T18:12:36.191Z,98392.39
2018-07-25T18:15:05.947Z,98388.84
2018-07-25T18:17:34.063Z,98394.89
2018-07-25T18:20:02.157Z,98396.64
2018-07-25T18:22:30.239Z,98406.02
2018-07-25T18:24:58.323Z,98409.08
2018-07-25T18:27:26.450Z,98405.75
2018-07-25T18:29:54.547Z,98415.36
2018-07-25T18:32:22.647Z,98418.63
2018-07-25T18:34:50.742Z,98418.80
2018-07-25T18:37:18.871Z,98420.56
2018-07-25T18:39:46.964Z,98421.29
2018-07-25T18:42:15.122Z,98419.84
2018-07-25T18:44:43.234Z,98411.18
2018-07-25T18:47:11.364Z,98412.73
2018-07-25T18:49:39.392Z,98414.88
2018-07-25T18:52:07.512Z,98414.36
2018-07-25T18:54:35.602Z,98413.89
2018-07-25T18:57:03.689Z,98409.27
2018-07-25T18:59:31.789Z,98414.34
2018-07-25T19:01:59.888Z,98416.23
2018-07-25T19:04:27.989Z,98413.79
2018-07-25T19:06:56.081Z,98410.23
2018-07-25T19:09:24.676Z,98409.34
2018-07-25T19:11:53.672Z,98406.67
2018-07-25T19:14:27.272Z,98407.18
2018-07-25T19:26:42.466Z,98410.55
2018-07-25T19:29:10.553Z,98409.67
2018-07-25T19:31:38.624Z,98414.27
2018-07-25T19:34:06.729Z,98424.39
2018-07-25T19:36:34.801Z,98422.69
2018-07-25T19:39:02.907Z,98425.39
2018-07-25T19:41:31.019Z,98433.52
2018-07-25T19:43:59.132Z,98432.41
2018-07-25T19:46:27.875Z,98438.89
2018-07-25T19:48:55.963Z,98443.64
2018-07-25T19:51:24.080Z,98442.26
2018-07-25T19:53:52.189Z,98442.71
2018-07-25T19:56:20.332Z,98439.85
2018-07-25T19:58:48.419Z,98443.05
2018-07-25T20:01:16.543Z,98441.80
2018-07-25T20:03:44.621Z,98440.45
2018-07-25T20:06:12.712Z,98436.40
2018-07-25T20:08:40.828Z,98439.09
2018-07-25T20:11:08.929Z,98446.05
2018-07-25T20:13:41.199Z,98441.77
2018-07-25T20:16:09.297Z,98444.36
2018-07-25T20:18:37.400Z,98442.25
2018-07-25T20:21:05.690Z,98446.13
2018-07-25T20:23:33.769Z,98445.33
2018-07-25T20:26:01.847Z,98440.94
2018-07-25T20:28:29.966Z,98447.27
2018-07-25T20:30:58.060Z,98455.18
2018-07-25T20:33:27.166Z,98451.78
2018-07-25T20:35:55.324Z,98453.89
2018-07-25T20:38:23.344Z,98452.63
2018-07-25T20:40:51.457Z,98459.02
2018-07-25T20:43:19.538Z,98461.68
2018-07-25T20:45:47.655Z,98460.66
2018-07-25T20:48:15.731Z,98457.07
2018-07-25T20:50:43.825Z,98462.58
2018-07-25T20:53:11.903Z,98464.61
2018-07-25T20:55:40.009Z,98466.14
2018-07-25T20:58:08.096Z,98463.84
2018-07-25T21:00:36.768Z,98473.67
2018-07-25T21:03:06.305Z,98471.44
2018-07-25T21:05:34.498Z,98466.41
2018-07-25T21:08:02.597Z,98480.79
2018-07-25T21:10:30.733Z,98481.47
2018-07-25T21:12:58.832Z,98473.77
2018-07-25T21:15:27.032Z,98473.86
2018-07-25T21:17:55.156Z,98477.75
2018-07-25T21:20:23.803Z,98481.52
2018-07-25T21:22:51.891Z,98478.82
2018-07-25T21:25:20.020Z,98480.31
2018-07-25T21:27:48.111Z,98481.67
2018-07-25T21:30:16.234Z,98476.65
2018-07-25T21:32:44.554Z,98479.13
2018-07-25T21:35:12.633Z,98483.97
2018-07-25T21:37:40.775Z,98482.39
2018-07-25T21:40:08.896Z,98483.13
2018-07-25T21:42:43.875Z,98486.14
2018-07-25T21:45:11.955Z,98487.17
2018-07-25T21:47:40.043Z,98485.39
2018-07-25T21:50:08.170Z,98489.89
2018-07-25T21:52:36.267Z,98493.38
2018-07-25T21:55:04.422Z,98485.77
2018-07-25T21:57:32.517Z,98491.01
2018-07-25T22:02:46.875Z,98498.86
2018-07-25T22:05:15.071Z,98492.81
2018-07-25T22:07:43.837Z,98496.90
2018-07-25T22:10:11.933Z,98493.68
2018-07-25T22:12:40.699Z,98488.20
2018-07-25T22:15:09.898Z,98498.85
2018-07-25T22:17:38.235Z,98493.80
2018-07-25T22:20:08.095Z,98492.13
2018-07-25T22:22:36.176Z,98489.98
2018-07-25T22:25:04.269Z,98479.81
2018-07-25T22:27:32.380Z,98479.82
2018-07-25T22:30:00.481Z,98485.67
2018-07-25T22:32:28.771Z,98483.31
2018-07-25T22:34:56.861Z,98484.49
2018-07-25T22:37:25.019Z,98481.13
2018-07-25T22:39:53.429Z,98486.89
2018-07-25T22:42:21.526Z,98491.78
2018-07-25T22:44:49.607Z,98493.88
2018-07-25T22:47:17.694Z,98487.73
2018-07-25T22:49:45.796Z,98493.34
2018-07-25T22:52:13.894Z,98494.02
2018-07-25T22:54:41.967Z,98490.21
2018-07-25T22:57:10.084Z,98502.97
2018-07-25T22:59:38.176Z,98500.34
2018-07-25T23:02:06.972Z,98502.20
2018-07-25T23:04:35.065Z,98499.50
2018-07-25T23:07:03.179Z,98495.96
2018-07-25T23:09:31.264Z,98497.83
2018-07-25T23:11:59.370Z,98493.70
2018-07-25T23:14:27.465Z,98499.08
2018-07-25T23:16:55.546Z,98501.66
2018-07-25T23:19:23.639Z,98501.07
2018-07-25T23:21:51.730Z,98501.68
2018-07-25T23:24:19.817Z,98495.92
2018-07-25T23:26:47.898Z,98497.66
2018-07-25T23:29:15.999Z,98497.98
2018-07-25T23:31:44.191Z,98492.10
2018-07-25T23:34:12.279Z,98491.59
2018-07-25T23:36:40.379Z,98496.66
2018-07-25T23:39:09.545Z,98491.83
2018-07-25T23:41:37.872Z,98495.10
2018-07-25T23:44:05.968Z,98493.54
2018-07-25T23:46:34.055Z,98495.81
2018-07-25T23:49:02.157Z,98490.78
2018-07-25T23:51:30.246Z,98484.17
2018-07-25T23:53:58.330Z,98493.23
2018-07-25T23:56:26.411Z,98478.72
2018-07-25T23:58:54.523Z,98487.55
